createdAt,value
2016-04-08T00:00:29.912Z,1007.26
2016-04-08T00:01:30.212Z,1007.26
2016-04-08T00:02:29.885Z,1007.26
2016-04-08T00:03:30.388Z,1007.24
2016-04-08T00:04:30.079Z,1007.27
2016-04-08T00:05:29.863Z,1007.24
2016-04-08T00:06:30.178Z,1007.22
2016-04-08T00:07:30.368Z,1007.23
2016-04-08T00:08:29.840Z,1007.25
2016-04-08T00:09:29.827Z,1007.28
2016-04-08T00:10:30.564Z,1007.3
2016-04-08T00:11:31.129Z,1007.27
2016-04-08T00:12:30.351Z,1007.26
2016-04-08T00:13:30.124Z,1007.27
2016-04-08T00:14:29.782Z,1007.26
2016-04-08T00:15:29.769Z,1007.25
2016-04-08T00:16:31.334Z,1007.23
2016-04-08T00:17:29.759Z,1007.23
2016-04-08T00:18:29.746Z,1007.24
2016-04-08T00:19:29.733Z,1007.24
2016-04-08T00:20:29.720Z,1007.28
2016-04-08T00:21:29.723Z,1007.23
2016-04-08T00:22:29.710Z,1007.23
2016-04-08T00:23:29.696Z,1007.24
2016-04-08T00:24:29.684Z,1007.24
2016-04-08T00:25:29.686Z,1007.2
2016-04-08T00:26:29.673Z,1007.22
2016-04-08T00:27:29.661Z,1007.25
2016-04-08T00:28:29.663Z,1007.26
2016-04-08T00:29:29.666Z,1007.23
2016-04-08T00:30:29.636Z,1007.26
2016-04-08T00:31:29.624Z,1007.25
2016-04-08T00:32:29.627Z,1007.22
2016-04-08T00:33:29.613Z,1007.25
2016-04-08T00:34:29.648Z,1007.19
2016-04-08T00:35:29.588Z,1007.2
2016-04-08T00:36:29.575Z,1007.16
2016-04-08T00:37:29.578Z,1007.19
2016-04-08T00:38:29.565Z,1007.19
2016-04-08T00:39:29.552Z,1007.22
2016-04-08T00:40:29.539Z,1007.19
2016-04-08T00:41:29.541Z,1007.16
2016-04-08T00:42:29.529Z,1007.17
2016-04-08T00:43:29.515Z,1007.11
2016-04-08T00:44:29.518Z,1007.08
2016-04-08T00:45:29.505Z,1007.03
2016-04-08T00:46:29.492Z,1007.03
2016-04-08T00:47:29.479Z,1007.06
2016-04-08T00:48:29.482Z,1007.06
2016-04-08T00:49:29.454Z,1007.07
2016-04-08T00:50:29.457Z,1007.11
2016-04-08T00:51:29.443Z,1007.11
2016-04-08T00:52:29.431Z,1007.15
2016-04-08T00:53:29.417Z,1007.14
2016-04-08T00:54:29.404Z,1007.12
2016-04-08T00:55:29.407Z,1007.13
2016-04-08T00:56:29.394Z,1007.12
2016-04-08T00:57:29.382Z,1007.14
2016-04-08T00:58:29.384Z,1007.14
2016-04-08T00:59:29.372Z,1007.13
2016-04-08T01:00:29.358Z,1007.12
2016-04-08T01:01:29.345Z,1007.1
2016-04-08T01:02:29.348Z,1007.16
2016-04-08T01:03:29.335Z,1007.16
2016-04-08T01:04:29.322Z,1007.18
2016-04-08T01:05:29.325Z,1007.2
2016-04-08T01:06:29.311Z,1007.22
2016-04-08T01:07:29.299Z,1007.2
2016-04-08T01:08:29.286Z,1007.2
2016-04-08T01:09:29.273Z,1007.23
2016-04-08T01:10:29.277Z,1007.26
2016-04-08T01:11:29.247Z,1007.28
2016-04-08T01:12:29.250Z,1007.31
2016-04-08T01:13:29.238Z,1007.29
2016-04-08T01:14:29.224Z,1007.3
2016-04-08T01:15:29.211Z,1007.35
2016-04-08T01:16:29.213Z,1007.36
2016-04-08T01:17:29.201Z,1007.38
2016-04-08T01:18:29.188Z,1007.35
2016-04-08T01:19:29.190Z,1007.33
2016-04-08T01:20:29.178Z,1007.34
2016-04-08T01:21:29.164Z,1007.28
2016-04-08T01:23:29.342Z,1007.29
2016-04-08T01:24:29.126Z,1007.27
2016-04-08T01:26:29.115Z,1007.29
2016-04-08T01:27:29.118Z,1007.31
2016-04-08T01:28:29.089Z,1007.32
2016-04-08T01:29:29.092Z,1007.32
2016-04-08T01:30:29.673Z,1007.3
2016-04-08T01:32:29.194Z,1007.28
2016-04-08T01:33:29.228Z,1007.32
2016-04-08T01:34:29.044Z,1007.3
2016-04-08T01:35:29.031Z,1007.33
2016-04-08T01:36:29.018Z,1007.3
2016-04-08T01:37:29.286Z,1007.28
2016-04-08T01:38:29.008Z,1007.25
2016-04-08T01:39:29.322Z,1007.27
2016-04-08T01:40:28.982Z,1007.32
2016-04-08T01:41:28.969Z,1007.3
2016-04-08T01:42:28.955Z,1007.28
2016-04-08T01:43:28.958Z,1007.33
2016-04-08T01:44:28.945Z,1007.31
2016-04-08T01:45:28.932Z,1007.35
2016-04-08T01:46:28.935Z,1007.35
2016-04-08T01:47:28.922Z,1007.4
2016-04-08T01:48:28.910Z,1007.38
2016-04-08T01:49:28.896Z,1007.32
2016-04-08T01:50:28.899Z,1007.33
2016-04-08T01:51:28.870Z,1007.28
2016-04-08T01:52:28.873Z,1007.24
2016-04-08T01:53:28.860Z,1007.26
2016-04-08T01:54:28.847Z,1007.24
2016-04-08T01:55:28.834Z,1007.24
2016-04-08T01:56:28.836Z,1007.22
2016-04-08T01:57:28.823Z,1007.18
2016-04-08T01:58:28.811Z,1007.2
2016-04-08T01:59:28.798Z,1007.19
2016-04-08T02:00:28.786Z,1007.19
2016-04-08T02:01:28.788Z,1007.18
2016-04-08T02:02:28.775Z,1007.19
2016-04-08T02:03:28.762Z,1007.19
2016-04-08T02:04:28.750Z,1007.18
2016-04-08T02:05:28.736Z,1007.15
2016-04-08T02:06:28.739Z,1007.15
2016-04-08T02:07:28.725Z,1007.16
2016-04-08T02:08:28.726Z,1007.17
2016-04-08T02:09:28.714Z,1007.21
2016-04-08T02:10:28.717Z,1007.24
2016-04-08T02:11:28.689Z,1007.29
2016-04-08T02:12:28.691Z,1007.31
2016-04-08T02:13:28.678Z,1007.29
2016-04-08T02:14:28.664Z,1007.29
2016-04-08T02:15:28.652Z,1007.31
2016-04-08T02:16:28.639Z,1007.25
2016-04-08T02:17:28.641Z,1007.33
2016-04-08T02:18:28.628Z,1007.25
2016-04-08T02:19:28.615Z,1007.29
2016-04-08T02:20:28.618Z,1007.29
2016-04-08T02:21:28.605Z,1007.29
2016-04-08T02:22:28.592Z,1007.23
2016-04-08T02:23:28.579Z,1007.24
2016-04-08T02:24:28.566Z,1007.21
2016-04-08T02:25:28.569Z,1007.16
2016-04-08T02:26:28.557Z,1007.14
2016-04-08T02:27:28.544Z,1007.14
2016-04-08T02:28:28.530Z,1007.1
2016-04-08T02:29:28.533Z,1007.11
2016-04-08T02:30:28.520Z,1007.1
2016-04-08T02:31:28.507Z,1007.1
2016-04-08T02:32:28.509Z,1007.09
2016-04-08T02:33:28.497Z,1007.13
2016-04-08T02:34:28.484Z,1007.13
2016-04-08T02:35:28.503Z,1007.16
2016-04-08T02:36:28.474Z,1007.14
2016-04-08T02:37:28.461Z,1007.14
2016-04-08T02:38:28.448Z,1007.14
2016-04-08T02:39:28.435Z,1007.16
2016-04-08T02:40:28.422Z,1007.22
2016-04-08T02:41:28.425Z,1007.23
2016-04-08T02:42:29.005Z,1007.23
2016-04-08T02:43:28.399Z,1007.24
2016-04-08T02:44:28.402Z,1007.25
2016-04-08T02:45:29.060Z,1007.27
2016-04-08T02:46:28.375Z,1007.28
2016-04-08T02:47:28.363Z,1007.26
2016-04-08T02:49:28.352Z,1007.27
2016-04-08T02:50:28.339Z,1007.29
2016-04-08T02:51:28.327Z,1007.27
2016-04-08T02:52:29.127Z,1007.27
2016-04-08T02:53:28.426Z,1007.25
2016-04-08T02:54:28.304Z,1007.26
2016-04-08T02:55:28.291Z,1007.28
2016-04-08T02:56:28.293Z,1007.25
2016-04-08T02:57:28.718Z,1007.26
2016-04-08T02:58:28.267Z,1007.24
2016-04-08T02:59:28.254Z,1007.23
2016-04-08T03:00:28.241Z,1007.23
2016-04-08T03:01:28.244Z,1007.21
2016-04-08T03:02:28.232Z,1007.29
2016-04-08T03:03:28.234Z,1007.24
2016-04-08T03:04:28.206Z,1007.22
2016-04-08T03:05:28.208Z,1007.21
2016-04-08T03:06:28.195Z,1007.18
2016-04-08T03:07:28.198Z,1007.25
2016-04-08T03:08:28.262Z,1007.24
2016-04-08T03:09:28.156Z,1007.26
2016-04-08T03:10:28.158Z,1007.22
2016-04-08T03:11:28.145Z,1007.27
2016-04-08T03:12:28.133Z,1007.22
2016-04-08T03:13:28.135Z,1007.26
2016-04-08T03:14:28.123Z,1007.27
2016-04-08T03:15:28.110Z,1007.25
2016-04-08T03:16:28.097Z,1007.23
2016-04-08T03:17:28.100Z,1007.25
2016-04-08T03:18:28.086Z,1007.26
2016-04-08T03:19:28.074Z,1007.26
2016-04-08T03:20:28.077Z,1007.29
2016-04-08T03:21:28.047Z,1007.3
2016-04-08T03:22:28.035Z,1007.3
2016-04-08T03:23:28.038Z,1007.33
2016-04-08T03:24:28.025Z,1007.34
2016-04-08T03:25:28.013Z,1007.29
2016-04-08T03:26:27.999Z,1007.35
2016-04-08T03:27:28.002Z,1007.37
2016-04-08T03:28:28.005Z,1007.34
2016-04-08T03:29:27.976Z,1007.39
2016-04-08T03:30:27.979Z,1007.38
2016-04-08T03:31:27.965Z,1007.4
2016-04-08T03:32:27.952Z,1007.44
2016-04-08T03:33:27.954Z,1007.42
2016-04-08T03:34:27.942Z,1007.4
2016-04-08T03:35:27.962Z,1007.44
2016-04-08T03:36:27.994Z,1007.42
2016-04-08T03:37:28.025Z,1007.43
2016-04-08T03:38:28.071Z,1007.45
2016-04-08T03:39:28.102Z,1007.43
2016-04-08T03:40:28.112Z,1007.44
2016-04-08T03:41:28.114Z,1007.44
2016-04-08T03:42:28.132Z,1007.46
2016-04-08T03:43:28.229Z,1007.43
2016-04-08T03:44:28.138Z,1007.41
2016-04-08T03:45:28.133Z,1007.45
2016-04-08T03:46:28.126Z,1007.44
2016-04-08T03:47:28.117Z,1007.43
2016-04-08T03:48:28.125Z,1007.45
2016-04-08T03:49:28.117Z,1007.5
2016-04-08T03:50:28.108Z,1007.46
2016-04-08T03:51:28.113Z,1007.48
2016-04-08T03:52:28.102Z,1007.5
2016-04-08T03:53:28.090Z,1007.48
2016-04-08T03:54:28.080Z,1007.48
2016-04-08T03:55:28.068Z,1007.47
2016-04-08T03:56:28.071Z,1007.47
2016-04-08T03:57:28.059Z,1007.42
2016-04-08T03:58:28.063Z,1007.43
2016-04-08T03:59:28.144Z,1007.43
2016-04-08T04:00:28.037Z,1007.45
2016-04-08T04:01:28.009Z,1007.42
2016-04-08T04:02:28.013Z,1007.43
2016-04-08T04:03:28.282Z,1007.41
2016-04-08T04:04:28.003Z,1007.39
2016-04-08T04:05:28.413Z,1007.45
2016-04-08T04:06:28.649Z,1007.42
2016-04-08T04:07:27.965Z,1007.4
2016-04-08T04:08:27.951Z,1007.42
2016-04-08T04:09:27.954Z,1007.46
2016-04-08T04:10:27.941Z,1007.43
2016-04-08T04:11:28.068Z,1007.43
2016-04-08T04:12:28.415Z,1007.42
2016-04-08T04:13:29.293Z,1007.44
2016-04-08T04:14:28.608Z,1007.45
2016-04-08T04:15:27.893Z,1007.49
2016-04-08T04:16:28.973Z,1007.45
2016-04-08T04:17:27.867Z,1007.52
2016-04-08T04:18:27.854Z,1007.47
2016-04-08T04:19:27.856Z,1007.49
2016-04-08T04:20:27.843Z,1007.49
2016-04-08T04:21:27.830Z,1007.53
2016-04-08T04:22:27.817Z,1007.54
2016-04-08T04:23:27.820Z,1007.51
2016-04-08T04:24:27.807Z,1007.5
2016-04-08T04:25:27.794Z,1007.51
2016-04-08T04:26:27.781Z,1007.53
2016-04-08T04:27:27.783Z,1007.5
2016-04-08T04:28:27.771Z,1007.54
2016-04-08T04:29:27.758Z,1007.53
2016-04-08T04:30:27.745Z,1007.52
2016-04-08T04:31:27.748Z,1007.54
2016-04-08T04:32:27.735Z,1007.54
2016-04-08T04:33:27.722Z,1007.55
2016-04-08T04:34:27.724Z,1007.6
2016-04-08T04:35:27.696Z,1007.59
2016-04-08T04:36:27.683Z,1007.63
2016-04-08T04:37:27.685Z,1007.69
2016-04-08T04:38:27.673Z,1007.7
2016-04-08T04:39:27.660Z,1007.68
2016-04-08T04:40:27.647Z,1007.75
2016-04-08T04:41:27.650Z,1007.76
2016-04-08T04:42:27.637Z,1007.72
2016-04-08T04:43:27.624Z,1007.73
2016-04-08T04:44:27.626Z,1007.77
2016-04-08T04:45:27.613Z,1007.8
2016-04-08T04:46:27.601Z,1007.81
2016-04-08T04:47:27.603Z,1007.83
2016-04-08T04:48:27.590Z,1007.84
2016-04-08T04:49:27.577Z,1007.84
2016-04-08T04:50:27.564Z,1007.87
2016-04-08T04:51:27.567Z,1007.87
2016-04-08T04:52:27.539Z,1007.9
2016-04-08T04:53:27.541Z,1007.86
2016-04-08T04:54:27.529Z,1007.92
2016-04-08T04:55:27.531Z,1007.97
2016-04-08T04:56:27.518Z,1007.92
2016-04-08T04:57:27.506Z,1007.95
2016-04-08T04:58:27.508Z,1007.9
2016-04-08T04:59:27.480Z,1007.88
2016-04-08T05:00:27.466Z,1007.93
2016-04-08T05:01:27.469Z,1007.93
2016-04-08T05:02:27.456Z,1007.95
2016-04-08T05:03:27.443Z,1007.96
2016-04-08T05:04:27.430Z,1007.99
2016-04-08T05:05:27.432Z,1007.97
2016-04-08T05:06:27.419Z,1007.99
2016-04-08T05:07:27.422Z,1008.05
2016-04-08T05:08:27.410Z,1008.02
2016-04-08T05:09:27.397Z,1007.99
2016-04-08T05:10:27.399Z,1008.03
2016-04-08T05:11:27.387Z,1008.02
2016-04-08T05:12:27.374Z,1008.03
2016-04-08T05:13:27.360Z,1008.01
2016-04-08T05:14:27.363Z,1008
2016-04-08T05:15:27.351Z,1008.03
2016-04-08T05:16:27.337Z,1007.98
2016-04-08T05:17:28.247Z,1007.99
2016-04-08T05:18:27.343Z,1007.99
2016-04-08T05:19:27.330Z,1008
2016-04-08T05:20:27.318Z,1008
2016-04-08T05:21:27.304Z,1008.04
2016-04-08T05:23:27.294Z,1008.06
2016-04-08T05:24:28.875Z,1008.08
2016-04-08T05:25:27.284Z,1008.1
2016-04-08T05:26:27.317Z,1008.08
2016-04-08T05:27:28.117Z,1008.08
2016-04-08T05:28:27.463Z,1008.1
2016-04-08T05:29:27.731Z,1008.1
2016-04-08T05:30:27.250Z,1008.14
2016-04-08T05:31:27.237Z,1008.15
2016-04-08T05:32:27.240Z,1008.14
2016-04-08T05:33:27.227Z,1008.16
2016-04-08T05:34:27.214Z,1008.18
2016-04-08T05:35:27.217Z,1008.15
2016-04-08T05:36:27.205Z,1008.18
2016-04-08T05:37:27.207Z,1008.17
2016-04-08T05:38:27.194Z,1008.22
2016-04-08T05:39:27.180Z,1008.16
2016-04-08T05:40:27.183Z,1008.19
2016-04-08T05:41:27.171Z,1008.31
2016-04-08T05:42:27.173Z,1008.25
2016-04-08T05:43:27.160Z,1008.23
2016-04-08T05:44:27.162Z,1008.19
2016-04-08T05:45:27.149Z,1008.21
2016-04-08T05:46:27.152Z,1008.19
2016-04-08T05:47:27.139Z,1008.31
2016-04-08T05:48:27.127Z,1008.32
2016-04-08T05:49:27.129Z,1008.37
2016-04-08T05:50:27.132Z,1008.39
2016-04-08T05:51:27.135Z,1008.42
2016-04-08T05:52:27.122Z,1008.41
2016-04-08T05:53:27.109Z,1008.38
2016-04-08T05:54:27.111Z,1008.42
2016-04-08T05:55:27.114Z,1008.42
2016-04-08T05:56:27.101Z,1008.45
2016-04-08T05:57:27.103Z,1008.42
2016-04-08T05:58:27.106Z,1008.47
2016-04-08T05:59:27.109Z,1008.51
2016-04-08T06:00:27.097Z,1008.43
2016-04-08T06:01:27.100Z,1008.48
2016-04-08T06:02:27.102Z,1008.51
2016-04-08T06:03:27.105Z,1008.54
2016-04-08T06:04:27.092Z,1008.5
2016-04-08T06:05:27.094Z,1008.4
2016-04-08T06:06:27.113Z,1008.46
2016-04-08T06:07:27.100Z,1008.4
2016-04-08T06:08:27.102Z,1008.5
2016-04-08T06:09:27.089Z,1008.48
2016-04-08T06:10:27.091Z,1008.45
2016-04-08T06:11:27.110Z,1008.53
2016-04-08T06:12:27.097Z,1008.64
2016-04-08T06:13:27.100Z,1008.66
2016-04-08T06:14:27.102Z,1008.71
2016-04-08T06:15:27.106Z,1008.71
2016-04-08T06:16:27.108Z,1008.66
2016-04-08T06:17:27.111Z,1008.66
2016-04-08T06:18:27.113Z,1008.67
2016-04-08T06:19:27.116Z,1008.71
2016-04-08T06:20:27.135Z,1008.66
2016-04-08T06:21:27.121Z,1008.67
2016-04-08T06:22:27.124Z,1008.75
2016-04-08T06:23:27.127Z,1008.79
2016-04-08T06:24:27.129Z,1008.84
2016-04-08T06:25:27.132Z,1008.78
2016-04-08T06:26:27.134Z,1008.69
2016-04-08T06:27:27.153Z,1008.74
2016-04-08T06:28:27.156Z,1008.77
2016-04-08T06:29:27.158Z,1008.85
2016-04-08T06:30:27.161Z,1008.91
2016-04-08T06:31:27.164Z,1008.89
2016-04-08T06:32:27.167Z,1008.91
2016-04-08T06:33:27.186Z,1008.9
2016-04-08T06:34:27.189Z,1008.91
2016-04-08T06:35:27.191Z,1008.91
2016-04-08T06:36:27.194Z,1008.93
2016-04-08T06:37:27.197Z,1008.91
2016-04-08T06:38:27.309Z,1008.93
2016-04-08T06:39:27.217Z,1008.98
2016-04-08T06:40:27.220Z,1008.96
2016-04-08T06:41:27.223Z,1009.01
2016-04-08T06:42:27.241Z,1009
2016-04-08T06:43:27.244Z,1008.96
2016-04-08T06:44:27.247Z,1009
2016-04-08T06:45:27.265Z,1009.03
2016-04-08T06:46:27.268Z,1009.15
2016-04-08T06:47:27.286Z,1009.17
2016-04-08T06:48:27.289Z,1009.19
2016-04-08T06:49:27.291Z,1009.24
2016-04-08T06:50:27.310Z,1009.23
2016-04-08T06:51:27.327Z,1009.27
2016-04-08T06:52:27.330Z,1009.44
2016-04-08T06:53:28.051Z,1009.39
2016-04-08T06:54:27.351Z,1009.46
2016-04-08T06:55:27.354Z,1009.61
2016-04-08T06:56:27.357Z,1009.75
2016-04-08T06:57:27.375Z,1009.81
2016-04-08T06:58:27.378Z,1009.93
2016-04-08T06:59:27.396Z,1009.89
2016-04-08T07:00:27.404Z,1009.82
2016-04-08T07:01:27.422Z,1009.8
2016-04-08T07:02:27.425Z,1009.54
2016-04-08T07:03:27.442Z,1009.63
2016-04-08T07:04:27.445Z,1010.1
2016-04-08T07:05:27.463Z,1010.18
2016-04-08T07:06:27.466Z,1010.16
2016-04-08T07:07:27.485Z,1010.25
2016-04-08T07:08:27.504Z,1010.23
2016-04-08T07:09:27.506Z,1010.38
2016-04-08T07:10:27.526Z,1010.65
2016-04-08T07:11:27.528Z,1010.7
2016-04-08T07:12:27.547Z,1010.66
2016-04-08T07:13:27.549Z,1010.79
2016-04-08T07:14:27.568Z,1010.82
2016-04-08T07:15:27.586Z,1010.87
2016-04-08T07:16:27.589Z,1011.12
2016-04-08T07:17:27.591Z,1011.29
2016-04-08T07:18:27.625Z,1011.22
2016-04-08T07:19:27.628Z,1011.14
2016-04-08T07:20:27.630Z,1011.15
2016-04-08T07:21:29.055Z,1010.58
2016-04-08T07:22:27.651Z,1010.44
2016-04-08T07:23:27.670Z,1010.41
2016-04-08T07:24:27.688Z,1010.29
2016-04-08T07:25:27.707Z,1010.24
2016-04-08T07:26:27.710Z,1010.18
2016-04-08T07:27:27.727Z,1010.17
2016-04-08T07:28:27.730Z,1010.45
2016-04-08T07:29:27.748Z,1010.45
2016-04-08T07:30:27.767Z,1010.64
2016-04-08T07:31:27.785Z,1010.63
2016-04-08T07:32:27.787Z,1010.76
2016-04-08T07:33:27.806Z,1010.82
2016-04-08T07:34:27.809Z,1010.42
2016-04-08T07:35:27.827Z,1010.24
2016-04-08T07:36:27.845Z,1010.25
2016-04-08T07:37:27.848Z,1010.33
2016-04-08T07:38:27.867Z,1010.22
2016-04-08T07:39:27.885Z,1010.02
2016-04-08T07:40:27.903Z,1010.11
2016-04-08T07:41:27.906Z,1010.14
2016-04-08T07:42:27.924Z,1010.11
2016-04-08T07:43:27.943Z,1010.05
2016-04-08T07:44:27.992Z,1010.31
2016-04-08T07:45:27.978Z,1009.99
2016-04-08T07:46:27.981Z,1009.33
2016-04-08T07:47:28.000Z,1009.73
2016-04-08T07:48:28.019Z,1009.73
2016-04-08T07:49:28.647Z,1009.96
2016-04-08T07:50:28.040Z,1009.93
2016-04-08T07:51:28.058Z,1009.92
2016-04-08T07:52:28.075Z,1009.85
2016-04-08T07:53:28.095Z,1009.79
2016-04-08T07:54:28.097Z,1009.7
2016-04-08T07:55:28.116Z,1009.41
2016-04-08T07:56:28.133Z,1009.38
2016-04-08T07:57:29.043Z,1009.33
2016-04-08T07:58:28.171Z,1009.26
2016-04-08T07:59:28.235Z,1009.24
2016-04-08T08:00:28.191Z,1009.22
2016-04-08T08:01:29.585Z,1009.19
2016-04-08T08:02:28.212Z,1009.21
2016-04-08T08:03:28.230Z,1009.17
2016-04-08T08:04:28.889Z,1009.2
2016-04-08T08:05:28.815Z,1009.16
2016-04-08T08:06:28.270Z,1009.15
2016-04-08T08:07:28.632Z,1009.16
2016-04-08T08:08:28.853Z,1009.21
2016-04-08T08:09:28.309Z,1009.19
2016-04-08T08:10:29.812Z,1009.09
2016-04-08T08:11:29.205Z,1009.1
2016-04-08T08:12:28.365Z,1009.04
2016-04-08T08:13:28.554Z,1009.04
2016-04-08T08:14:28.510Z,1009.04
2016-04-08T08:15:28.403Z,1009
2016-04-08T08:16:28.781Z,1009.07
2016-04-08T08:17:28.425Z,1009.1
2016-04-08T08:18:28.427Z,1009.07
2016-04-08T08:19:28.445Z,1008.97
2016-04-08T08:20:28.464Z,1008.72
2016-04-08T08:21:28.483Z,1008.58
2016-04-08T08:22:28.485Z,1008.6
2016-04-08T08:23:28.503Z,1008.54
2016-04-08T08:24:28.522Z,1008.57
2016-04-08T08:25:28.524Z,1008.54
2016-04-08T08:26:28.542Z,1008.55
2016-04-08T08:27:28.545Z,1008.51
2016-04-08T08:28:28.548Z,1008.55
2016-04-08T08:29:28.566Z,1008.54
2016-04-08T08:30:28.568Z,1008.51
2016-04-08T08:31:28.588Z,1008.47
2016-04-08T08:32:28.590Z,1008.4
2016-04-08T08:33:28.593Z,1008.44
2016-04-08T08:34:28.611Z,1008.52
2016-04-08T08:35:28.613Z,1008.51
2016-04-08T08:36:28.616Z,1008.49
2016-04-08T08:37:28.635Z,1008.44
2016-04-08T08:38:28.637Z,1008.41
2016-04-08T08:39:28.640Z,1008.43
2016-04-08T08:40:28.642Z,1008.48
2016-04-08T08:41:28.645Z,1008.48
2016-04-08T08:42:28.648Z,1008.47
2016-04-08T08:43:28.650Z,1008.46
2016-04-08T08:44:28.669Z,1008.47
2016-04-08T08:45:28.656Z,1008.5
2016-04-08T08:46:28.659Z,1008.49
2016-04-08T08:47:28.692Z,1008.48
2016-04-08T08:48:28.680Z,1008.47
2016-04-08T08:49:28.667Z,1008.46
2016-04-08T08:50:28.669Z,1008.46
2016-04-08T08:51:28.672Z,1008.47
2016-04-08T08:52:28.674Z,1008.41
2016-04-08T08:53:28.678Z,1008.35
2016-04-08T08:54:28.680Z,1008.4
2016-04-08T08:55:28.683Z,1008.38
2016-04-08T08:56:28.670Z,1008.43
2016-04-08T08:57:28.688Z,1008.42
2016-04-08T08:58:28.800Z,1008.4
2016-04-08T08:59:28.694Z,1008.4
2016-04-08T09:00:28.680Z,1008.41
2016-04-08T09:01:28.683Z,1008.42
2016-04-08T09:02:28.685Z,1008.43
2016-04-08T09:03:28.689Z,1008.44
2016-04-08T09:04:28.691Z,1008.39
2016-04-08T09:05:28.679Z,1008.42
2016-04-08T09:06:28.682Z,1008.48
2016-04-08T09:07:28.684Z,1008.4
2016-04-08T09:08:28.687Z,1008.43
2016-04-08T09:09:28.689Z,1008.43
2016-04-08T09:10:28.677Z,1008.4
2016-04-08T09:11:28.679Z,1008.33
2016-04-08T09:12:28.681Z,1008.32
2016-04-08T09:14:28.687Z,1008.37
2016-04-08T09:15:28.674Z,1008.38
2016-04-08T09:16:29.084Z,1008.45
2016-04-08T09:17:29.258Z,1008.4
2016-04-08T09:18:28.681Z,1008.34
2016-04-08T09:19:28.684Z,1008.37
2016-04-08T09:20:28.687Z,1008.42
2016-04-08T09:21:30.144Z,1008.45
2016-04-08T09:22:29.677Z,1008.45
2016-04-08T09:23:28.680Z,1008.36
2016-04-08T09:24:29.402Z,1008.39
2016-04-08T09:25:28.685Z,1008.41
2016-04-08T09:26:28.689Z,1008.39
2016-04-08T09:27:28.675Z,1008.39
2016-04-08T09:29:28.681Z,1008.38
2016-04-08T09:30:28.683Z,1008.42
2016-04-08T09:31:28.671Z,1008.43
2016-04-08T09:32:28.673Z,1008.4
2016-04-08T09:33:28.676Z,1008.42
2016-04-08T09:34:28.663Z,1008.41
2016-04-08T09:35:28.666Z,1008.41
2016-04-08T09:36:28.669Z,1008.44
2016-04-08T09:37:28.671Z,1008.43
2016-04-08T09:38:28.673Z,1008.43
2016-04-08T09:39:28.676Z,1008.41
2016-04-08T09:40:28.663Z,1008.32
2016-04-08T09:41:28.665Z,1008.32
2016-04-08T09:42:28.668Z,1008.29
2016-04-08T09:43:28.671Z,1008.29
2016-04-08T09:44:28.658Z,1008.3
2016-04-08T09:45:28.676Z,1008.32
2016-04-08T09:46:28.664Z,1008.29
2016-04-08T09:47:28.667Z,1008.29
2016-04-08T09:48:28.669Z,1008.27
2016-04-08T09:49:28.656Z,1008.26
2016-04-08T09:50:28.659Z,1008.24
2016-04-08T09:51:28.661Z,1008.21
2016-04-08T09:52:28.680Z,1008.21
2016-04-08T09:53:28.667Z,1008.24
2016-04-08T09:54:28.653Z,1008.19
2016-04-08T09:55:28.657Z,1008.23
2016-04-08T09:56:28.659Z,1008.18
2016-04-08T09:57:28.665Z,1008.19
2016-04-08T09:58:28.653Z,1008.13
2016-04-08T09:59:28.656Z,1008.17
2016-04-08T10:00:28.659Z,1008.12
2016-04-08T10:01:28.662Z,1008.15
2016-04-08T10:02:28.648Z,1008.17
2016-04-08T10:03:28.651Z,1008.16
2016-04-08T10:04:29.092Z,1008.16
2016-04-08T10:05:28.656Z,1008.07
2016-04-08T10:06:28.643Z,1008.11
2016-04-08T10:07:28.645Z,1008.14
2016-04-08T10:08:28.648Z,1008.16
2016-04-08T10:09:28.651Z,1008.16
2016-04-08T10:10:29.263Z,1008.13
2016-04-08T10:11:28.657Z,1008.11
2016-04-08T10:12:28.644Z,1008.06
2016-04-08T10:13:28.646Z,1008.07
2016-04-08T10:14:28.649Z,1008.01
2016-04-08T10:15:28.652Z,1008.01
2016-04-08T10:16:28.639Z,1008.02
2016-04-08T10:17:28.641Z,1008.01
2016-04-08T10:18:28.644Z,1008.02
2016-04-08T10:19:28.647Z,1007.99
2016-04-08T10:20:28.634Z,1007.97
2016-04-08T10:21:28.638Z,1007.9
2016-04-08T10:22:28.640Z,1007.93
2016-04-08T10:23:28.642Z,1007.92
2016-04-08T10:24:28.646Z,1007.92
2016-04-08T10:25:28.632Z,1007.92
2016-04-08T10:26:28.635Z,1007.87
2016-04-08T10:27:28.637Z,1007.86
2016-04-08T10:28:28.640Z,1007.88
2016-04-08T10:29:28.643Z,1007.92
2016-04-08T10:30:28.630Z,1007.84
2016-04-08T10:31:28.632Z,1007.87
2016-04-08T10:33:28.637Z,1007.8
2016-04-08T10:34:28.640Z,1007.82
2016-04-08T10:35:28.643Z,1007.77
2016-04-08T10:36:29.286Z,1007.75
2016-04-08T10:37:28.883Z,1007.75
2016-04-08T10:38:28.636Z,1007.76
2016-04-08T10:39:28.639Z,1007.81
2016-04-08T10:40:29.141Z,1007.79
2016-04-08T10:41:28.628Z,1007.87
2016-04-08T10:43:28.634Z,1007.84
2016-04-08T10:44:28.683Z,1007.8
2016-04-08T10:45:28.858Z,1007.82
2016-04-08T10:46:28.688Z,1007.91
2016-04-08T10:48:28.631Z,1007.9
2016-04-08T10:49:28.634Z,1007.86
2016-04-08T10:50:28.636Z,1007.89
2016-04-08T10:51:29.607Z,1007.91
2016-04-08T10:52:29.049Z,1007.95
2016-04-08T10:53:28.629Z,1007.93
2016-04-08T10:54:28.632Z,1007.87
2016-04-08T10:55:28.634Z,1007.9
2016-04-08T10:56:28.637Z,1007.88
2016-04-08T10:57:28.640Z,1007.86
2016-04-08T10:58:28.627Z,1007.81
2016-04-08T10:59:28.630Z,1007.82
2016-04-08T11:00:28.629Z,1007.89
2016-04-08T11:01:28.631Z,1007.93
2016-04-08T11:02:28.635Z,1007.91
2016-04-08T11:03:28.622Z,1007.91
2016-04-08T11:04:28.624Z,1007.94
2016-04-08T11:05:28.628Z,1007.93
2016-04-08T11:06:28.630Z,1007.9
2016-04-08T11:07:28.633Z,1007.94
2016-04-08T11:08:28.635Z,1007.77
2016-04-08T11:09:28.638Z,1007.84
2016-04-08T11:10:28.625Z,1007.85
2016-04-08T11:11:28.628Z,1007.73
2016-04-08T11:12:28.630Z,1007.78
2016-04-08T11:13:28.633Z,1007.83
2016-04-08T11:14:28.619Z,1007.71
2016-04-08T11:15:28.638Z,1007.74
2016-04-08T11:16:28.625Z,1007.78
2016-04-08T11:17:28.628Z,1007.79
2016-04-08T11:18:28.647Z,1007.76
2016-04-08T11:19:28.633Z,1007.76
2016-04-08T11:20:28.636Z,1007.75
2016-04-08T11:21:28.639Z,1007.83
2016-04-08T11:22:28.626Z,1007.8
2016-04-08T11:23:28.643Z,1007.81
2016-04-08T11:24:28.632Z,1007.83
2016-04-08T11:25:28.634Z,1007.83
2016-04-08T11:26:28.636Z,1007.81
2016-04-08T11:27:28.639Z,1007.82
2016-04-08T11:28:28.642Z,1007.85
2016-04-08T11:29:28.645Z,1007.84
2016-04-08T11:30:28.648Z,1007.85
2016-04-08T11:31:28.634Z,1007.82
2016-04-08T11:32:28.653Z,1007.8
2016-04-08T11:33:28.655Z,1007.78
2016-04-08T11:34:28.643Z,1007.73
2016-04-08T11:35:28.645Z,1007.74
2016-04-08T11:36:28.648Z,1007.69
2016-04-08T11:37:28.651Z,1007.79
2016-04-08T11:38:28.653Z,1007.69
2016-04-08T11:39:28.656Z,1007.75
2016-04-08T11:40:28.659Z,1007.76
2016-04-08T11:41:28.661Z,1007.73
2016-04-08T11:42:28.664Z,1007.7
2016-04-08T11:43:28.652Z,1007.74
2016-04-08T11:44:28.654Z,1007.73
2016-04-08T11:45:28.656Z,1007.71
2016-04-08T11:46:28.659Z,1007.66
2016-04-08T11:47:28.663Z,1007.62
2016-04-08T11:48:28.665Z,1007.62
2016-04-08T11:49:28.668Z,1007.57
2016-04-08T11:50:28.670Z,1007.55
2016-04-08T11:51:28.673Z,1007.53
2016-04-08T11:52:28.676Z,1007.48
2016-04-08T11:53:28.679Z,1007.4
2016-04-08T11:54:28.681Z,1007.38
2016-04-08T11:55:28.683Z,1007.42
2016-04-08T11:56:28.687Z,1007.37
2016-04-08T11:58:28.676Z,1007.4
2016-04-08T11:59:28.679Z,1007.44
2016-04-08T12:00:28.681Z,1007.46
2016-04-08T12:01:28.887Z,1007.44
2016-04-08T12:02:29.859Z,1007.49
2016-04-08T12:03:28.689Z,1007.43
2016-04-08T12:04:28.692Z,1007.41
2016-04-08T12:05:28.694Z,1007.36
2016-04-08T12:06:29.729Z,1007.35
2016-04-08T12:07:29.044Z,1007.31
2016-04-08T12:08:30.162Z,1007.3
2016-04-08T12:09:28.712Z,1007.23
2016-04-08T12:10:28.698Z,1007.26
2016-04-08T12:11:28.701Z,1007.2
2016-04-08T12:12:28.704Z,1007.22
2016-04-08T12:13:28.706Z,1007.17
2016-04-08T12:14:28.709Z,1007.16
2016-04-08T12:15:28.712Z,1007.19
2016-04-08T12:16:28.699Z,1007.2
2016-04-08T12:17:28.717Z,1007.2
2016-04-08T12:18:28.705Z,1007.17
2016-04-08T12:19:28.707Z,1007.12